createdAt,value
2022-10-15T00:01:46.480Z,3.83
2022-10-15T00:04:14.170Z,2.70
2022-10-15T00:06:41.807Z,3.53
2022-10-15T00:09:09.609Z,2.60
2022-10-15T00:11:37.199Z,2.80
2022-10-15T00:14:04.959Z,2.43
2022-10-15T00:16:33.671Z,3.63
2022-10-15T00:19:05.446Z,2.90
2022-10-15T00:21:33.299Z,2.80
2022-10-15T00:24:00.874Z,2.90
2022-10-15T00:26:30.157Z,3.97
2022-10-15T00:28:59.892Z,2.77
2022-10-15T00:31:29.817Z,3.77
2022-10-15T00:33:59.969Z,3.30
2022-10-15T00:36:31.333Z,3.10
2022-10-15T00:38:59.487Z,3.60
2022-10-15T00:41:31.958Z,3.83
2022-10-15T00:44:02.043Z,3.07
2022-10-15T00:46:34.971Z,3.07
2022-10-15T00:49:09.493Z,5.17
2022-10-15T00:51:43.776Z,3.77
2022-10-15T00:54:13.020Z,3.20
2022-10-15T00:56:44.580Z,3.73
2022-10-15T00:59:15.101Z,3.20
2022-10-15T01:01:43.062Z,3.97
2022-10-15T01:04:12.602Z,3.83
2022-10-15T01:06:42.685Z,3.77
2022-10-15T01:09:10.380Z,4.30
2022-10-15T01:11:43.655Z,3.67
2022-10-15T01:14:29.608Z,13.93
2022-10-15T01:17:04.799Z,4.43
2022-10-15T01:20:00.955Z,4.53
2022-10-15T01:22:53.091Z,4.20
2022-10-15T01:25:35.234Z,4.37
2022-10-15T01:28:15.624Z,5.03
2022-10-15T01:30:47.997Z,9.03
2022-10-15T01:33:30.447Z,4.40
2022-10-15T01:36:07.221Z,5.20
2022-10-15T01:38:54.834Z,5.90
2022-10-15T01:41:29.161Z,5.07
2022-10-15T01:44:01.828Z,5.27
2022-10-15T01:46:36.639Z,6.83
2022-10-15T01:49:06.187Z,6.50
2022-10-15T01:51:39.454Z,5.93
2022-10-15T01:54:13.473Z,8.20
2022-10-15T01:56:42.047Z,6.87
2022-10-15T01:59:11.467Z,8.93
2022-10-15T02:04:21.607Z,5.37
2022-10-15T02:06:54.730Z,7.70
2022-10-15T02:09:33.766Z,9.60
2022-10-15T02:12:10.395Z,7.37
2022-10-15T02:14:58.922Z,6.97
2022-10-15T02:17:35.997Z,7.73
2022-10-15T02:20:12.252Z,8.70
2022-10-15T02:22:47.175Z,7.93
2022-10-15T02:25:19.090Z,9.97
2022-10-15T02:27:50.313Z,8.13
2022-10-15T02:30:19.078Z,13.33
2022-10-15T02:32:52.926Z,9.47
2022-10-15T02:35:23.501Z,8.30
2022-10-15T02:37:53.999Z,8.37
2022-10-15T02:40:27.158Z,9.50
2022-10-15T02:42:55.467Z,9.13
2022-10-15T02:45:23.083Z,8.00
2022-10-15T02:47:51.976Z,10.23
2022-10-15T02:50:19.706Z,10.80
2022-10-15T02:52:47.333Z,6.93
2022-10-15T02:55:15.119Z,7.30
2022-10-15T02:57:42.839Z,7.20
2022-10-15T03:00:11.641Z,13.03
2022-10-15T03:02:39.518Z,15.70
2022-10-15T03:05:10.869Z,7.10
2022-10-15T03:07:38.633Z,9.17
2022-10-15T03:10:07.331Z,7.27
2022-10-15T03:12:35.282Z,7.70
2022-10-15T03:15:03.291Z,9.90
2022-10-15T03:17:30.827Z,7.80
2022-10-15T03:19:58.462Z,7.03
2022-10-15T03:22:27.712Z,7.67
2022-10-15T03:24:55.284Z,9.17
2022-10-15T03:27:23.290Z,10.20
2022-10-15T03:29:51.041Z,7.10
2022-10-15T03:32:18.811Z,8.53
2022-10-15T03:34:46.479Z,7.47
2022-10-15T03:37:16.558Z,8.50
2022-10-15T03:39:45.670Z,7.40
2022-10-15T03:42:13.308Z,8.60
2022-10-15T03:44:40.892Z,7.83
2022-10-15T03:47:08.676Z,15.07
2022-10-15T03:49:36.290Z,9.00
2022-10-15T03:52:03.984Z,8.53
2022-10-15T03:54:31.539Z,9.23
2022-10-15T03:57:03.533Z,7.10
2022-10-15T03:59:31.264Z,10.17
2022-10-15T04:01:59.126Z,8.60
2022-10-15T04:04:26.897Z,8.70
2022-10-15T04:06:54.608Z,7.60
2022-10-15T04:09:22.312Z,6.23
2022-10-15T04:11:50.075Z,6.03
2022-10-15T04:14:20.064Z,7.47
2022-10-15T04:16:47.601Z,6.10
2022-10-15T04:19:16.101Z,6.97
2022-10-15T04:21:43.714Z,6.47
2022-10-15T04:24:11.424Z,6.30
2022-10-15T04:26:39.126Z,9.70
2022-10-15T04:29:06.887Z,5.17
2022-10-15T04:31:37.483Z,9.17
2022-10-15T04:34:05.288Z,8.00
2022-10-15T04:36:32.952Z,8.03
2022-10-15T04:39:00.784Z,8.77
2022-10-15T04:41:28.488Z,8.10
2022-10-15T04:43:56.498Z,7.70
2022-10-15T04:46:24.161Z,8.23
2022-10-15T04:48:57.541Z,9.80
2022-10-15T04:51:26.349Z,11.00
2022-10-15T04:53:54.403Z,10.60
2022-10-15T04:56:23.339Z,10.80
2022-10-15T04:58:51.519Z,10.07
2022-10-15T05:01:21.170Z,15.17
2022-10-15T05:03:50.510Z,10.67
2022-10-15T05:06:21.171Z,11.73
2022-10-15T05:08:50.984Z,13.80
2022-10-15T05:11:20.565Z,14.50
2022-10-15T05:13:48.470Z,10.70
2022-10-15T05:16:18.442Z,11.23
2022-10-15T05:18:47.921Z,11.00
2022-10-15T05:21:17.074Z,13.33
2022-10-15T05:23:47.120Z,12.20
2022-10-15T05:26:16.148Z,14.00
2022-10-15T05:28:43.835Z,11.87
2022-10-15T05:31:18.413Z,11.33
2022-10-15T05:33:47.099Z,11.77
2022-10-15T05:36:17.296Z,9.43
2022-10-15T05:38:46.672Z,11.03
2022-10-15T05:41:14.429Z,9.87
2022-10-15T05:43:42.519Z,8.90
2022-10-15T05:46:10.576Z,10.70
2022-10-15T05:48:38.156Z,10.03
2022-10-15T05:51:08.059Z,9.30
2022-10-15T05:53:36.524Z,9.17
2022-10-15T05:56:06.371Z,10.17
2022-10-15T05:58:37.424Z,12.20
2022-10-15T06:01:08.826Z,8.03
2022-10-15T06:03:37.109Z,9.93
2022-10-15T06:06:05.569Z,7.40
2022-10-15T06:08:33.294Z,7.90
2022-10-15T06:11:08.412Z,10.00
2022-10-15T06:13:38.870Z,5.60
2022-10-15T06:16:07.033Z,7.90
2022-10-15T06:18:34.648Z,7.83
2022-10-15T06:21:02.534Z,10.70
2022-10-15T06:23:30.489Z,7.03
2022-10-15T06:26:02.312Z,6.40
2022-10-15T06:28:31.810Z,6.43
2022-10-15T06:31:00.649Z,5.80
2022-10-15T06:33:29.119Z,7.73
2022-10-15T06:35:57.022Z,6.17
2022-10-15T06:38:25.351Z,6.13
2022-10-15T06:40:53.061Z,8.40
2022-10-15T06:43:20.701Z,11.57
2022-10-15T06:45:49.614Z,7.73
2022-10-15T06:48:17.483Z,8.53
2022-10-15T06:50:45.408Z,11.10
2022-10-15T06:53:12.945Z,8.10
2022-10-15T06:55:40.680Z,10.23
2022-10-15T06:58:08.306Z,6.87
2022-10-15T07:03:10.138Z,5.93
2022-10-15T07:05:37.704Z,7.90
2022-10-15T07:08:05.740Z,4.67
2022-10-15T07:10:33.522Z,5.70
2022-10-15T07:13:01.499Z,5.77
2022-10-15T07:15:29.379Z,11.20
2022-10-15T07:18:01.216Z,7.87
2022-10-15T07:20:31.182Z,4.40
2022-10-15T07:22:59.746Z,7.53
2022-10-15T07:25:28.690Z,5.47
2022-10-15T07:27:57.204Z,7.77
2022-10-15T07:30:27.306Z,4.90
2022-10-15T07:32:56.599Z,4.40
2022-10-15T07:35:24.328Z,4.47
2022-10-15T07:37:53.368Z,3.87
2022-10-15T07:40:21.078Z,13.40
2022-10-15T07:42:53.653Z,4.27
2022-10-15T07:45:21.212Z,4.57
2022-10-15T07:47:48.757Z,4.20
2022-10-15T07:50:16.802Z,4.77
2022-10-15T07:52:44.420Z,4.80
2022-10-15T07:55:13.422Z,5.33
2022-10-15T07:57:41.027Z,11.40
2022-10-15T08:00:10.232Z,7.53
2022-10-15T08:02:38.002Z,4.77
2022-10-15T08:05:06.251Z,4.80
2022-10-15T08:07:33.800Z,4.60
2022-10-15T08:10:01.380Z,2.70
2022-10-15T08:12:30.392Z,2.80
2022-10-15T08:14:57.918Z,6.67
2022-10-15T08:17:25.761Z,4.40
2022-10-15T08:19:53.413Z,3.20
2022-10-15T08:22:21.234Z,2.80
2022-10-15T08:24:49.045Z,7.83
2022-10-15T08:27:16.833Z,2.60
2022-10-15T08:29:46.471Z,3.10
2022-10-15T08:32:14.391Z,5.30
2022-10-15T08:34:41.998Z,4.13
2022-10-15T08:37:09.866Z,2.70
2022-10-15T08:39:37.471Z,2.30
2022-10-15T08:42:07.970Z,1.90
2022-10-15T08:44:42.163Z,2.30
2022-10-15T08:47:18.226Z,3.67
2022-10-15T08:49:51.313Z,2.50
2022-10-15T08:52:26.012Z,2.17
2022-10-15T08:54:56.221Z,3.43
2022-10-15T08:57:37.637Z,4.97
2022-10-15T09:00:12.246Z,2.23
2022-10-15T09:02:51.707Z,2.30
2022-10-15T09:05:35.402Z,3.23
2022-10-15T09:08:14.188Z,2.73
2022-10-15T09:10:47.492Z,3.07
2022-10-15T09:13:21.776Z,3.13
2022-10-15T09:15:52.902Z,4.67
2022-10-15T09:18:25.900Z,6.57
2022-10-15T09:20:54.987Z,2.40
2022-10-15T09:23:24.971Z,2.20
2022-10-15T09:25:59.395Z,2.07
2022-10-15T09:28:33.269Z,4.23
2022-10-15T09:31:01.225Z,2.30
2022-10-15T09:33:37.999Z,3.87
2022-10-15T09:36:17.978Z,2.20
2022-10-15T09:38:56.263Z,4.63
2022-10-15T09:41:34.602Z,2.30
2022-10-15T09:44:06.968Z,2.20
2022-10-15T09:46:35.016Z,2.30
2022-10-15T09:49:10.006Z,1.87
2022-10-15T09:51:45.152Z,2.10
2022-10-15T09:54:22.455Z,1.80
2022-10-15T09:56:55.331Z,1.83
2022-10-15T09:59:24.119Z,2.33
2022-10-15T10:01:59.124Z,1.60
2022-10-15T10:04:30.131Z,3.70
2022-10-15T10:06:59.999Z,3.20
2022-10-15T10:09:32.647Z,1.80
2022-10-15T10:12:02.561Z,2.33
2022-10-15T10:14:32.951Z,6.00
2022-10-15T10:17:13.919Z,1.60
2022-10-15T10:19:43.059Z,2.10
2022-10-15T10:22:16.354Z,1.73
2022-10-15T10:24:44.501Z,4.33
2022-10-15T10:27:22.115Z,1.87
2022-10-15T10:29:55.383Z,4.63
2022-10-15T10:32:24.990Z,2.37
2022-10-15T10:34:54.330Z,5.40
2022-10-15T10:37:23.186Z,6.07
2022-10-15T10:39:55.477Z,5.70
2022-10-15T10:42:32.267Z,1.60
2022-10-15T10:45:18.769Z,1.60
2022-10-15T10:47:46.971Z,1.83
2022-10-15T10:50:31.057Z,2.77
2022-10-15T10:53:00.077Z,1.80
2022-10-15T10:55:38.222Z,1.60
2022-10-15T10:58:05.824Z,1.87
2022-10-15T11:00:39.841Z,1.57
2022-10-15T11:03:14.604Z,6.47
2022-10-15T11:05:44.303Z,1.77
2022-10-15T11:08:22.533Z,3.37
2022-10-15T11:10:55.202Z,1.77
2022-10-15T11:13:41.179Z,3.17
2022-10-15T11:16:16.336Z,5.80
2022-10-15T11:19:03.578Z,4.20
2022-10-15T11:21:52.730Z,1.57
2022-10-15T11:24:33.448Z,3.97
2022-10-15T11:27:23.548Z,2.23
2022-10-15T11:29:57.328Z,5.83
2022-10-15T11:33:01.739Z,1.50
2022-10-15T11:35:54.200Z,1.90
2022-10-15T11:38:32.477Z,1.70
2022-10-15T11:41:17.578Z,2.47
2022-10-15T11:44:04.059Z,1.70
2022-10-15T11:46:44.149Z,2.20
2022-10-15T11:49:31.955Z,2.07
2022-10-15T11:52:13.605Z,1.97
2022-10-15T11:54:46.380Z,7.67
2022-10-15T11:57:19.554Z,1.77
2022-10-15T11:59:53.000Z,2.50
2022-10-15T12:02:25.415Z,2.03
2022-10-15T12:04:57.101Z,1.93
2022-10-15T12:07:29.141Z,2.37
2022-10-15T12:10:05.775Z,2.50
2022-10-15T12:12:41.827Z,3.03
2022-10-15T12:15:21.563Z,2.10
2022-10-15T12:17:56.594Z,2.70
2022-10-15T12:20:27.247Z,2.00
2022-10-15T12:22:58.443Z,3.60
2022-10-15T12:25:44.918Z,4.50
2022-10-15T12:28:19.656Z,16.80
2022-10-15T12:31:02.001Z,21.50
2022-10-15T12:33:34.771Z,20.83
2022-10-15T12:36:09.042Z,25.63
2022-10-15T12:38:39.527Z,15.50
2022-10-15T12:41:10.820Z,10.73
2022-10-15T12:43:41.983Z,7.30
2022-10-15T12:46:11.777Z,4.07
2022-10-15T12:48:42.330Z,3.50
2022-10-15T12:51:31.065Z,5.00
2022-10-15T12:54:00.311Z,2.30
2022-10-15T12:56:40.158Z,2.67
2022-10-15T12:59:29.994Z,3.70
2022-10-15T13:01:57.657Z,2.70
2022-10-15T13:04:38.610Z,4.33
2022-10-15T13:07:06.556Z,3.30
2022-10-15T13:09:34.225Z,3.90
2022-10-15T13:12:04.413Z,3.80
2022-10-15T13:14:37.267Z,4.03
2022-10-15T13:17:07.226Z,5.80
2022-10-15T13:19:39.350Z,2.90
2022-10-15T13:22:20.740Z,3.27
2022-10-15T13:24:48.515Z,4.17
2022-10-15T13:27:23.868Z,3.10
2022-10-15T13:29:56.625Z,2.03
2022-10-15T13:32:26.258Z,3.37
2022-10-15T13:34:55.990Z,3.03
2022-10-15T13:37:30.442Z,1.60
2022-10-15T13:40:01.853Z,2.67
2022-10-15T13:42:35.413Z,1.60
2022-10-15T13:45:05.738Z,6.10
2022-10-15T13:47:35.344Z,1.70
2022-10-15T13:50:18.670Z,1.43
2022-10-15T13:52:50.015Z,2.90
2022-10-15T13:55:21.122Z,1.10
2022-10-15T13:57:52.514Z,1.43
2022-10-15T14:00:26.594Z,1.87
2022-10-15T14:03:17.674Z,1.80
2022-10-15T14:05:46.867Z,5.07
2022-10-15T14:08:17.780Z,1.30
2022-10-15T14:10:45.562Z,1.83
2022-10-15T14:13:14.569Z,1.43
2022-10-15T14:15:44.768Z,1.50
2022-10-15T14:18:14.758Z,1.30
2022-10-15T14:20:46.674Z,1.50
2022-10-15T14:23:22.006Z,2.80
2022-10-15T14:25:54.956Z,2.37
2022-10-15T14:28:25.303Z,2.70
2022-10-15T14:30:53.651Z,1.33
2022-10-15T14:33:32.510Z,1.37
2022-10-15T14:36:09.460Z,6.73
2022-10-15T14:38:37.026Z,2.30
2022-10-15T14:41:09.194Z,3.43
2022-10-15T14:43:38.882Z,3.27
2022-10-15T14:46:08.195Z,2.10
2022-10-15T14:48:38.338Z,1.53
2022-10-15T14:51:07.941Z,1.27
2022-10-15T14:53:38.588Z,1.20
2022-10-15T14:56:13.158Z,1.20
2022-10-15T14:58:51.890Z,1.23
2022-10-15T15:01:21.026Z,1.07
2022-10-15T15:03:50.637Z,2.93
2022-10-15T15:06:18.853Z,1.83
2022-10-15T15:08:46.921Z,1.73
2022-10-15T15:11:18.772Z,1.37
2022-10-15T15:13:47.934Z,1.43
2022-10-15T15:16:17.438Z,1.10
2022-10-15T15:18:46.589Z,2.10
2022-10-15T15:21:16.351Z,0.87
2022-10-15T15:23:44.718Z,4.17
2022-10-15T15:26:12.365Z,1.00
2022-10-15T15:28:39.976Z,1.30
2022-10-15T15:31:15.022Z,1.10
2022-10-15T15:33:42.608Z,1.43
2022-10-15T15:36:14.240Z,0.87
2022-10-15T15:38:44.055Z,12.43
2022-10-15T15:41:14.476Z,1.40
2022-10-15T15:43:42.698Z,8.10
2022-10-15T15:46:11.897Z,1.60
2022-10-15T15:48:39.685Z,3.17
2022-10-15T15:51:12.488Z,1.30
2022-10-15T15:53:40.216Z,2.13
2022-10-15T15:56:08.112Z,1.43
2022-10-15T15:58:35.713Z,3.83
2022-10-15T16:01:03.309Z,1.77
2022-10-15T16:03:32.236Z,1.40
2022-10-15T16:05:59.894Z,1.60
2022-10-15T16:08:27.551Z,1.70
2022-10-15T16:10:55.085Z,1.77
2022-10-15T16:13:22.634Z,7.17
2022-10-15T16:15:50.205Z,1.30
2022-10-15T16:18:17.758Z,1.30
2022-10-15T16:20:48.730Z,1.73
2022-10-15T16:23:17.334Z,1.37
2022-10-15T16:25:45.148Z,1.00
2022-10-15T16:28:12.831Z,1.10
2022-10-15T16:30:40.443Z,2.73
2022-10-15T16:35:36.738Z,1.23
2022-10-15T16:38:05.647Z,1.30
2022-10-15T16:40:33.530Z,0.80
2022-10-15T16:43:01.486Z,3.07
2022-10-15T16:45:29.022Z,2.40
2022-10-15T16:47:56.620Z,1.83
2022-10-15T16:50:24.213Z,11.17
2022-10-15T16:52:51.842Z,4.10
2022-10-15T16:55:20.933Z,1.40
2022-10-15T16:57:48.491Z,2.33
2022-10-15T17:00:16.097Z,1.97
2022-10-15T17:02:43.685Z,2.80
2022-10-15T17:05:11.338Z,1.43
2022-10-15T17:07:38.867Z,2.50
2022-10-15T17:10:10.827Z,5.50
2022-10-15T17:12:42.922Z,6.33
2022-10-15T17:15:11.089Z,2.70
2022-10-15T17:17:38.662Z,2.80
2022-10-15T17:20:09.207Z,1.70
2022-10-15T17:22:37.480Z,1.67
2022-10-15T17:25:05.796Z,5.03
2022-10-15T17:27:35.555Z,1.90
2022-10-15T17:30:05.025Z,2.87
2022-10-15T17:32:32.659Z,1.70
2022-10-15T17:35:03.799Z,2.27
2022-10-15T17:37:32.344Z,1.47
2022-10-15T17:40:00.144Z,1.83
2022-10-15T17:42:28.298Z,1.67
2022-10-15T17:44:55.987Z,2.03
2022-10-15T17:47:25.079Z,2.20
2022-10-15T17:49:53.117Z,1.97
2022-10-15T17:52:20.660Z,1.60
2022-10-15T17:54:48.183Z,2.20
2022-10-15T17:57:15.788Z,3.20
2022-10-15T17:59:45.338Z,1.30
2022-10-15T18:02:14.990Z,1.90
2022-10-15T18:04:44.454Z,1.63
2022-10-15T18:07:12.064Z,1.70
2022-10-15T18:09:39.651Z,1.80
2022-10-15T18:12:07.434Z,2.10
2022-10-15T18:14:35.136Z,2.10
2022-10-15T18:17:02.789Z,3.23
2022-10-15T18:19:30.441Z,3.50
2022-10-15T18:21:59.396Z,2.83
2022-10-15T18:24:27.060Z,3.20
2022-10-15T18:26:54.949Z,5.73
2022-10-15T18:29:25.175Z,2.23
2022-10-15T18:31:57.408Z,1.47
2022-10-15T18:34:25.818Z,3.20
2022-10-15T18:36:53.526Z,3.13
2022-10-15T18:39:22.608Z,2.07
2022-10-15T18:41:50.180Z,1.53
2022-10-15T18:44:21.423Z,5.73
2022-10-15T18:46:49.017Z,4.20
2022-10-15T18:49:18.304Z,1.43
2022-10-15T18:51:46.777Z,2.20
2022-10-15T18:54:14.583Z,2.13
2022-10-15T18:56:43.700Z,2.20
2022-10-15T18:59:11.353Z,3.30
2022-10-15T19:01:41.899Z,1.70
2022-10-15T19:04:11.939Z,1.80
2022-10-15T19:06:41.172Z,1.77
2022-10-15T19:09:12.479Z,2.30
2022-10-15T19:11:41.110Z,4.73
2022-10-15T19:14:10.568Z,2.30
2022-10-15T19:16:38.705Z,6.93
2022-10-15T19:19:07.346Z,2.97
2022-10-15T19:21:37.368Z,4.67
2022-10-15T19:24:05.602Z,1.70
2022-10-15T19:26:34.919Z,1.80
2022-10-15T19:29:03.842Z,1.80
2022-10-15T19:31:37.809Z,2.10
2022-10-15T19:34:05.877Z,1.80
2022-10-15T19:36:35.950Z,2.10
2022-10-15T19:39:05.866Z,5.50
2022-10-15T19:41:33.659Z,1.60
2022-10-15T19:44:03.080Z,2.00
2022-10-15T19:46:32.170Z,3.70
2022-10-15T19:48:59.722Z,1.73
2022-10-15T19:51:27.390Z,5.40
2022-10-15T19:53:56.406Z,2.70
2022-10-15T19:56:23.983Z,2.23
2022-10-15T19:58:55.961Z,2.50
2022-10-15T20:01:23.721Z,1.80
2022-10-15T20:03:52.793Z,2.00
2022-10-15T20:06:21.602Z,3.00
2022-10-15T20:08:49.294Z,1.73
2022-10-15T20:11:16.904Z,2.20
2022-10-15T20:13:44.488Z,2.70
2022-10-15T20:16:14.481Z,3.13
2022-10-15T20:18:43.239Z,5.43
2022-10-15T20:21:16.229Z,2.40
2022-10-15T20:23:45.006Z,2.07
2022-10-15T20:26:14.389Z,1.97
2022-10-15T20:28:44.204Z,2.17
2022-10-15T20:31:14.089Z,1.97
2022-10-15T20:33:41.918Z,3.13
2022-10-15T20:36:14.806Z,3.80
2022-10-15T20:38:44.544Z,7.63
2022-10-15T20:41:14.138Z,3.87
2022-10-15T20:43:42.763Z,2.40
2022-10-15T20:46:15.320Z,4.23
2022-10-15T20:48:45.263Z,2.80
2022-10-15T20:51:18.514Z,2.00
2022-10-15T20:53:46.872Z,3.37
2022-10-15T20:56:14.842Z,3.10
2022-10-15T20:58:42.715Z,1.70
2022-10-15T21:01:10.374Z,2.47
2022-10-15T21:03:37.992Z,1.90
2022-10-15T21:06:05.755Z,2.60
2022-10-15T21:08:34.681Z,2.00
2022-10-15T21:11:03.638Z,1.73
2022-10-15T21:13:31.368Z,1.50
2022-10-15T21:16:00.007Z,1.77
2022-10-15T21:18:27.788Z,6.93
2022-10-15T21:20:56.024Z,1.60
2022-10-15T21:23:23.657Z,4.93
2022-10-15T21:25:52.480Z,3.80
2022-10-15T21:28:20.068Z,2.10
2022-10-15T21:30:47.607Z,1.87
2022-10-15T21:33:15.228Z,2.70
2022-10-15T21:35:42.955Z,2.17
2022-10-15T21:38:10.573Z,2.13
2022-10-15T21:40:38.229Z,4.30
2022-10-15T21:43:07.113Z,2.00
2022-10-15T21:45:34.665Z,2.17
2022-10-15T21:48:02.217Z,5.10
2022-10-15T21:50:29.940Z,2.90
2022-10-15T21:52:57.567Z,4.53
2022-10-15T21:55:28.355Z,1.67
2022-10-15T21:57:58.088Z,4.40
2022-10-15T22:00:27.321Z,3.20
2022-10-15T22:02:55.065Z,1.70
2022-10-15T22:05:22.929Z,1.70
2022-10-15T22:07:50.576Z,2.10
2022-10-15T22:10:18.602Z,2.43
2022-10-15T22:12:52.345Z,2.40
2022-10-15T22:15:19.987Z,1.93
2022-10-15T22:17:48.851Z,2.40
2022-10-15T22:20:21.373Z,2.73
2022-10-15T22:22:50.546Z,1.57
2022-10-15T22:25:18.119Z,1.83
2022-10-15T22:27:45.635Z,1.70
2022-10-15T22:30:13.195Z,2.43
2022-10-15T22:32:40.790Z,1.90
2022-10-15T22:35:10.161Z,2.57
2022-10-15T22:37:37.856Z,1.83
2022-10-15T22:40:06.467Z,4.10
2022-10-15T22:42:34.107Z,1.60
2022-10-15T22:45:01.690Z,1.53
2022-10-15T22:47:29.274Z,2.80
2022-10-15T22:49:56.900Z,1.47
2022-10-15T22:52:26.127Z,3.33
2022-10-15T22:54:54.015Z,2.30
2022-10-15T22:57:21.599Z,2.20
2022-10-15T22:59:49.263Z,1.87
2022-10-15T23:02:20.896Z,1.60
2022-10-15T23:04:48.488Z,1.60
2022-10-15T23:07:16.168Z,2.10
2022-10-15T23:09:45.069Z,1.40
2022-10-15T23:12:12.567Z,2.70
2022-10-15T23:14:40.117Z,2.17
2022-10-15T23:17:07.861Z,7.97
2022-10-15T23:19:35.478Z,1.60
2022-10-15T23:22:03.436Z,2.80
2022-10-15T23:24:31.007Z,2.20
2022-10-15T23:27:00.494Z,2.47
2022-10-15T23:29:27.999Z,2.30
2022-10-15T23:31:55.870Z,3.03
2022-10-15T23:34:25.192Z,2.90
2022-10-15T23:36:53.651Z,2.40
2022-10-15T23:39:24.188Z,2.77
2022-10-15T23:41:51.932Z,3.13
2022-10-15T23:44:21.395Z,4.30
2022-10-15T23:46:49.010Z,2.93
2022-10-15T23:49:16.568Z,2.90
2022-10-15T23:51:44.557Z,3.17
2022-10-15T23:54:14.930Z,3.67
2022-10-15T23:56:43.085Z,4.40
2022-10-15T23:59:10.732Z,3.37
